createdAt,value
2019-06-01T00:00:42.511Z,0.00
2019-06-01T00:01:44.474Z,0.00
2019-06-01T00:02:45.467Z,0.00
2019-06-01T00:03:44.286Z,0.00
2019-06-01T00:04:45.229Z,0.00
2019-06-01T00:05:44.683Z,0.00
2019-06-01T00:06:45.123Z,0.00
2019-06-01T00:07:45.574Z,0.00
2019-06-01T00:08:47.214Z,0.00
2019-06-01T00:09:47.238Z,0.00
2019-06-01T00:10:47.746Z,0.00
2019-06-01T00:11:47.537Z,0.00
2019-06-01T00:12:47.753Z,0.00
2019-06-01T00:13:48.180Z,0.00
2019-06-01T00:14:49.917Z,0.00
2019-06-01T00:15:50.262Z,0.00
2019-06-01T00:16:50.409Z,0.00
2019-06-01T00:17:50.065Z,0.00
2019-06-01T00:18:50.454Z,0.00
2019-06-01T00:19:50.802Z,0.00
2019-06-01T00:20:51.241Z,0.00
2019-06-01T00:21:52.247Z,0.00
2019-06-01T00:22:52.111Z,0.00
2019-06-01T00:23:52.843Z,0.00
2019-06-01T00:24:52.993Z,0.00
2019-06-01T00:25:53.427Z,0.00
2019-06-01T00:26:53.856Z,0.00
2019-06-01T00:27:54.297Z,0.00
2019-06-01T00:28:54.743Z,0.00
2019-06-01T00:29:55.166Z,0.00
2019-06-01T00:30:55.604Z,0.00
2019-06-01T00:31:56.051Z,0.00
2019-06-01T00:32:56.480Z,0.00
2019-06-01T00:33:56.925Z,0.00
2019-06-01T00:34:57.363Z,0.00
2019-06-01T00:35:57.786Z,0.00
2019-06-01T00:36:58.228Z,0.00
2019-06-01T00:37:58.660Z,0.00
2019-06-01T00:38:59.100Z,0.00
2019-06-01T00:39:59.538Z,0.00
2019-06-01T00:40:59.973Z,0.00
2019-06-01T00:42:00.448Z,0.00
2019-06-01T00:43:00.846Z,0.00
2019-06-01T00:44:01.291Z,0.00
2019-06-01T00:45:01.764Z,0.00
2019-06-01T00:46:02.164Z,0.00
2019-06-01T00:47:02.608Z,0.00
2019-06-01T00:48:03.032Z,0.00
2019-06-01T00:49:03.473Z,0.00
2019-06-01T00:50:03.909Z,0.00
2019-06-01T00:51:04.347Z,0.00
2019-06-01T00:52:04.780Z,0.00
2019-06-01T00:53:05.217Z,0.00
2019-06-01T00:54:05.655Z,0.00
2019-06-01T00:55:06.096Z,0.00
2019-06-01T00:56:06.525Z,0.00
2019-06-01T00:57:06.962Z,0.00
2019-06-01T00:58:07.397Z,0.00
2019-06-01T00:59:07.838Z,0.00
2019-06-01T01:00:08.294Z,0.00
2019-06-01T01:01:08.709Z,0.00
2019-06-01T01:02:09.326Z,0.00
2019-06-01T01:03:09.591Z,0.00
2019-06-01T01:04:10.021Z,0.00
2019-06-01T01:05:10.463Z,0.00
2019-06-01T01:06:10.893Z,0.00
2019-06-01T01:07:11.361Z,0.00
2019-06-01T01:08:11.767Z,0.00
2019-06-01T01:09:12.205Z,0.00
2019-06-01T01:10:12.653Z,0.00
2019-06-01T01:11:13.081Z,0.00
2019-06-01T01:12:13.524Z,0.00
2019-06-01T01:13:13.951Z,0.00
2019-06-01T01:14:14.394Z,0.00
2019-06-01T01:15:14.904Z,0.00
2019-06-01T01:16:15.265Z,0.00
2019-06-01T01:17:15.704Z,0.00
2019-06-01T01:18:16.135Z,0.00
2019-06-01T01:19:16.578Z,0.00
2019-06-01T01:20:17.013Z,0.00
2019-06-01T01:21:17.447Z,0.00
2019-06-01T01:22:17.888Z,0.00
2019-06-01T01:23:18.328Z,0.00
2019-06-01T01:24:18.764Z,0.00
2019-06-01T01:25:19.196Z,0.00
2019-06-01T01:26:19.632Z,0.00
2019-06-01T01:27:20.069Z,0.00
2019-06-01T01:28:23.800Z,0.00
2019-06-01T01:29:20.942Z,0.00
2019-06-01T01:30:21.377Z,0.00
2019-06-01T01:31:21.818Z,0.00
2019-06-01T01:32:22.255Z,0.00
2019-06-01T01:33:22.681Z,0.00
2019-06-01T01:34:23.122Z,0.00
2019-06-01T01:35:23.558Z,0.00
2019-06-01T01:36:23.997Z,0.00
2019-06-01T01:37:24.440Z,0.00
2019-06-01T01:38:24.875Z,0.00
2019-06-01T01:39:25.304Z,0.00
2019-06-01T01:40:25.749Z,0.00
2019-06-01T01:41:26.179Z,0.00
2019-06-01T01:42:26.610Z,0.00
2019-06-01T01:43:27.056Z,0.00
2019-06-01T01:44:27.487Z,0.00
2019-06-01T01:45:27.922Z,0.00
2019-06-01T01:46:28.364Z,0.00
2019-06-01T01:47:28.792Z,0.00
2019-06-01T01:48:29.232Z,0.00
2019-06-01T01:49:29.666Z,0.00
2019-06-01T01:50:30.128Z,0.00
2019-06-01T01:51:30.561Z,0.00
2019-06-01T01:52:30.977Z,0.00
2019-06-01T01:53:31.417Z,0.00
2019-06-01T01:54:31.852Z,0.00
2019-06-01T01:55:32.288Z,0.00
2019-06-01T01:56:32.733Z,0.00
2019-06-01T01:57:33.158Z,0.00
2019-06-01T01:58:33.601Z,0.00
2019-06-01T01:59:34.035Z,0.00
2019-06-01T02:00:34.469Z,0.00
2019-06-01T02:01:34.910Z,0.00
2019-06-01T02:02:35.337Z,0.00
2019-06-01T02:03:35.775Z,0.00
2019-06-01T02:04:36.212Z,0.00
2019-06-01T02:05:36.649Z,0.00
2019-06-01T02:06:37.087Z,0.00
2019-06-01T02:07:37.519Z,0.00
2019-06-01T02:08:37.979Z,0.00
2019-06-01T02:09:38.401Z,0.00
2019-06-01T02:10:38.836Z,0.00
2019-06-01T02:11:39.269Z,0.00
2019-06-01T02:12:39.699Z,0.00
2019-06-01T02:13:40.141Z,0.00
2019-06-01T02:14:40.569Z,0.00
2019-06-01T02:15:41.012Z,0.00
2019-06-01T02:16:41.446Z,0.00
2019-06-01T02:17:41.888Z,0.00
2019-06-01T02:18:42.313Z,0.00
2019-06-01T02:19:42.751Z,0.00
2019-06-01T02:20:43.188Z,0.00
2019-06-01T02:21:43.628Z,0.00
2019-06-01T02:22:44.070Z,0.00
2019-06-01T02:23:44.503Z,0.00
2019-06-01T02:24:44.927Z,0.00
2019-06-01T02:25:45.362Z,0.00
2019-06-01T02:26:45.805Z,0.00
2019-06-01T02:27:46.235Z,0.00
2019-06-01T02:28:46.670Z,0.00
2019-06-01T02:29:47.107Z,0.00
2019-06-01T02:30:47.546Z,0.00
2019-06-01T02:31:47.976Z,0.00
2019-06-01T02:32:48.420Z,0.00
2019-06-01T02:33:48.850Z,0.00
2019-06-01T02:34:49.317Z,0.00
2019-06-01T02:35:49.729Z,0.00
2019-06-01T02:36:50.161Z,0.00
2019-06-01T02:37:50.606Z,0.00
2019-06-01T02:38:51.029Z,0.00
2019-06-01T02:39:51.505Z,0.00
2019-06-01T02:40:51.923Z,0.00
2019-06-01T02:41:52.337Z,0.00
2019-06-01T02:42:52.775Z,0.00
2019-06-01T02:43:54.651Z,0.00
2019-06-01T02:44:55.100Z,0.00
2019-06-01T02:45:54.076Z,0.00
2019-06-01T02:46:55.371Z,0.00
2019-06-01T02:47:55.340Z,0.00
2019-06-01T02:48:55.549Z,0.00
2019-06-01T02:49:57.577Z,0.00
2019-06-01T02:50:57.437Z,0.00
2019-06-01T02:51:57.194Z,0.00
2019-06-01T02:52:57.333Z,0.00
2019-06-01T02:53:57.705Z,0.00
2019-06-01T02:54:58.004Z,0.00
2019-06-01T02:55:58.436Z,0.00
2019-06-01T02:57:00.131Z,0.00
2019-06-01T02:58:00.215Z,0.00
2019-06-01T02:59:00.412Z,0.00
2019-06-01T03:00:00.421Z,0.00
2019-06-01T03:01:00.637Z,0.00
2019-06-01T03:02:07.361Z,0.00
2019-06-01T03:03:01.484Z,0.00
2019-06-01T03:04:03.275Z,0.00
2019-06-01T03:05:03.286Z,0.00
2019-06-01T03:06:03.508Z,0.00
2019-06-01T03:07:03.858Z,0.00
2019-06-01T03:08:03.665Z,0.00
2019-06-01T03:09:04.099Z,0.00
2019-06-01T03:10:05.430Z,0.00
2019-06-01T03:11:05.993Z,0.00
2019-06-01T03:12:06.326Z,0.00
2019-06-01T03:13:06.197Z,0.00
2019-06-01T03:14:06.623Z,0.00
2019-06-01T03:15:06.711Z,0.00
2019-06-01T03:16:07.146Z,0.00
2019-06-01T03:17:07.899Z,0.00
2019-06-01T03:18:08.018Z,0.00
2019-06-01T03:19:08.457Z,0.00
2019-06-01T03:20:08.891Z,0.00
2019-06-01T03:21:09.334Z,0.00
2019-06-01T03:22:09.770Z,0.00
2019-06-01T03:23:10.203Z,0.00
2019-06-01T03:24:10.681Z,0.00
2019-06-01T03:25:12.256Z,0.00
2019-06-01T03:26:12.471Z,0.00
2019-06-01T03:27:12.467Z,0.00
2019-06-01T03:28:12.456Z,0.00
2019-06-01T03:29:12.804Z,0.00
2019-06-01T03:30:15.630Z,0.00
2019-06-01T03:31:13.684Z,0.00
2019-06-01T03:32:34.093Z,0.00
2019-06-01T03:33:14.609Z,0.00
2019-06-01T03:34:14.989Z,0.00
2019-06-01T03:35:15.428Z,0.00
2019-06-01T03:36:15.858Z,0.00
2019-06-01T03:37:16.296Z,0.00
2019-06-01T03:38:16.730Z,0.00
2019-06-01T03:39:17.166Z,0.00
2019-06-01T03:40:23.780Z,0.00
2019-06-01T03:41:18.041Z,0.00
2019-06-01T03:42:18.474Z,0.00
2019-06-01T03:43:18.909Z,0.00
2019-06-01T03:44:19.349Z,0.00
2019-06-01T03:45:19.779Z,0.00
2019-06-01T03:46:20.220Z,0.00
2019-06-01T03:47:20.645Z,0.00
2019-06-01T03:48:21.086Z,0.00
2019-06-01T03:49:21.521Z,0.00
2019-06-01T03:50:21.953Z,0.00
2019-06-01T03:51:22.399Z,0.00
2019-06-01T03:52:22.830Z,0.00
2019-06-01T03:53:23.265Z,0.00
2019-06-01T03:54:23.699Z,0.00
2019-06-01T03:55:24.141Z,0.00
2019-06-01T03:56:24.574Z,0.00
2019-06-01T03:57:25.008Z,0.00
2019-06-01T03:58:25.441Z,0.00
2019-06-01T03:59:25.886Z,0.00
2019-06-01T04:00:26.312Z,0.00
2019-06-01T04:01:26.751Z,0.00
2019-06-01T04:02:33.161Z,0.00
2019-06-01T04:03:27.619Z,0.00
2019-06-01T04:04:28.060Z,0.00
2019-06-01T04:05:28.499Z,0.00
2019-06-01T04:06:28.929Z,0.00
2019-06-01T04:07:29.370Z,0.00
2019-06-01T04:08:29.804Z,0.00
2019-06-01T04:09:30.241Z,0.00
2019-06-01T04:10:30.668Z,0.00
2019-06-01T04:11:31.100Z,0.00
2019-06-01T04:12:31.542Z,0.00
2019-06-01T04:13:31.978Z,0.00
2019-06-01T04:14:32.417Z,0.00
2019-06-01T04:15:32.849Z,0.00
2019-06-01T04:16:33.288Z,0.00
2019-06-01T04:17:33.719Z,0.00
2019-06-01T04:18:34.157Z,0.00
2019-06-01T04:19:34.589Z,0.00
2019-06-01T04:20:35.030Z,0.00
2019-06-01T04:21:35.464Z,0.00
2019-06-01T04:22:35.895Z,0.00
2019-06-01T04:23:36.580Z,0.00
2019-06-01T04:24:36.772Z,0.00
2019-06-01T04:25:37.207Z,0.00
2019-06-01T04:26:37.659Z,0.00
2019-06-01T04:27:38.080Z,0.00
2019-06-01T04:28:38.514Z,0.00
2019-06-01T04:29:38.944Z,0.00
2019-06-01T04:30:39.386Z,0.00
2019-06-01T04:31:39.840Z,0.00
2019-06-01T04:32:49.365Z,0.00
2019-06-01T04:33:40.693Z,0.00
2019-06-01T04:34:41.128Z,0.00
2019-06-01T04:35:41.567Z,0.00
2019-06-01T04:36:42.014Z,0.00
2019-06-01T04:37:42.434Z,0.00
2019-06-01T04:38:42.871Z,0.00
2019-06-01T04:39:43.324Z,0.00
2019-06-01T04:40:43.756Z,0.00
2019-06-01T04:41:44.186Z,0.00
2019-06-01T04:42:44.621Z,0.00
2019-06-01T04:43:45.054Z,0.57
2019-06-01T04:44:45.492Z,1.82
2019-06-01T04:45:45.936Z,2.40
2019-06-01T04:46:46.384Z,3.74
2019-06-01T04:47:46.807Z,4.90
2019-06-01T04:48:47.240Z,6.05
2019-06-01T04:49:47.679Z,6.72
2019-06-01T04:50:48.115Z,7.49
2019-06-01T04:51:48.551Z,9.03
2019-06-01T04:52:48.994Z,9.99
2019-06-01T04:53:49.430Z,10.56
2019-06-01T04:54:49.874Z,10.17
2019-06-01T04:55:50.302Z,10.08
2019-06-01T04:56:50.736Z,10.66
2019-06-01T04:57:51.173Z,12.10
2019-06-01T04:58:51.622Z,17.68
2019-06-01T04:59:52.060Z,16.91
2019-06-01T05:00:52.486Z,14.51
2019-06-01T05:01:52.924Z,16.42
2019-06-01T05:03:05.057Z,18.35
2019-06-01T05:03:53.796Z,17.49
2019-06-01T05:04:54.235Z,17.39
2019-06-01T05:05:54.675Z,18.35
2019-06-01T05:06:55.109Z,19.60
2019-06-01T05:07:55.553Z,18.16
2019-06-01T05:08:55.984Z,18.93
2019-06-01T05:09:56.426Z,19.80
2019-06-01T05:10:56.864Z,23.55
2019-06-01T05:11:57.299Z,25.57
2019-06-01T05:12:57.737Z,28.16
2019-06-01T05:13:58.184Z,30.76
2019-06-01T05:14:58.622Z,32.20
2019-06-01T05:15:59.053Z,33.26
2019-06-01T05:16:59.491Z,35.49
2019-06-01T05:17:59.929Z,37.77
2019-06-01T05:19:00.363Z,34.91
2019-06-01T05:20:00.815Z,34.89
2019-06-01T05:21:01.241Z,34.72
2019-06-01T05:22:01.680Z,36.93
2019-06-01T05:23:02.123Z,40.78
2019-06-01T05:24:02.562Z,43.97
2019-06-01T05:25:03.018Z,47.24
2019-06-01T05:26:03.438Z,46.57
2019-06-01T05:27:03.876Z,48.52
2019-06-01T05:28:04.317Z,53.02
2019-06-01T05:29:04.754Z,52.56
2019-06-01T05:30:05.191Z,55.07
2019-06-01T05:31:05.641Z,56.22
2019-06-01T05:32:06.113Z,57.50
2019-06-01T05:33:21.375Z,58.85
2019-06-01T05:34:07.721Z,59.94
2019-06-01T05:35:07.683Z,63.21
2019-06-01T05:36:08.042Z,66.39
2019-06-01T05:37:08.563Z,67.07
2019-06-01T05:38:08.715Z,68.23
2019-06-01T05:39:10.308Z,67.36
2019-06-01T05:40:10.539Z,69.48
2019-06-01T05:41:11.569Z,69.77
2019-06-01T05:42:10.685Z,68.61
2019-06-01T05:43:14.268Z,68.52
2019-06-01T05:44:11.376Z,69.57
2019-06-01T05:45:12.931Z,69.29
2019-06-01T05:46:12.244Z,69.87
2019-06-01T05:47:12.691Z,69.77
2019-06-01T05:48:17.308Z,70.15
2019-06-01T05:49:14.728Z,68.80
2019-06-01T05:50:14.358Z,68.90
2019-06-01T05:51:16.902Z,68.04
2019-06-01T05:52:14.889Z,67.07
2019-06-01T05:53:16.572Z,67.65
2019-06-01T05:54:16.692Z,68.99
2019-06-01T05:55:16.767Z,66.69
2019-06-01T05:56:16.911Z,67.16
2019-06-01T05:57:17.136Z,67.16
2019-06-01T05:58:17.565Z,67.07
2019-06-01T05:59:18.372Z,67.55
2019-06-01T06:00:19.168Z,68.90
2019-06-01T06:01:19.590Z,69.57
2019-06-01T06:02:19.649Z,69.38
2019-06-01T06:03:22.320Z,68.13
2019-06-01T06:04:20.183Z,67.46
2019-06-01T06:05:20.624Z,68.90
2019-06-01T06:06:22.063Z,69.57
2019-06-01T06:07:21.514Z,68.84
2019-06-01T06:08:22.241Z,68.93
2019-06-01T06:09:23.143Z,70.00
2019-06-01T06:10:22.824Z,71.15
2019-06-01T06:11:23.268Z,74.20
2019-06-01T06:12:23.709Z,73.95
2019-06-01T06:13:24.149Z,73.85
2019-06-01T06:14:24.633Z,73.95
2019-06-01T06:15:25.038Z,73.18
2019-06-01T06:16:25.474Z,72.92
2019-06-01T06:17:25.950Z,72.21
2019-06-01T06:18:26.362Z,72.41
2019-06-01T06:19:26.800Z,73.57
2019-06-01T06:20:27.241Z,74.37
2019-06-01T06:21:27.689Z,74.76
2019-06-01T06:22:28.124Z,76.30
2019-06-01T06:23:28.587Z,77.84
2019-06-01T06:24:29.035Z,78.91
2019-06-01T06:25:31.757Z,78.33
2019-06-01T06:26:29.908Z,78.86
2019-06-01T06:27:30.350Z,77.55
2019-06-01T06:28:30.779Z,80.78
2019-06-01T06:29:31.219Z,82.42
2019-06-01T06:30:31.671Z,81.70
2019-06-01T06:31:32.122Z,81.55
2019-06-01T06:32:32.552Z,81.55
2019-06-01T06:33:32.996Z,81.45
2019-06-01T06:34:33.435Z,81.45
2019-06-01T06:35:33.881Z,80.64
2019-06-01T06:36:34.331Z,81.41
2019-06-01T06:37:34.771Z,81.02
2019-06-01T06:38:35.208Z,80.54
2019-06-01T06:39:35.650Z,80.93
2019-06-01T06:40:36.213Z,80.51
2019-06-01T06:41:36.547Z,80.79
2019-06-01T06:42:36.981Z,79.93
2019-06-01T06:43:37.514Z,79.64
2019-06-01T06:44:37.870Z,78.00
2019-06-01T06:45:38.306Z,78.77
2019-06-01T06:46:38.758Z,79.77
2019-06-01T06:47:39.191Z,80.68
2019-06-01T06:48:39.631Z,81.55
2019-06-01T06:49:40.096Z,84.48
2019-06-01T06:50:40.514Z,84.47
2019-06-01T06:51:40.965Z,87.51
2019-06-01T06:52:41.408Z,88.47
2019-06-01T06:53:41.849Z,88.33
2019-06-01T06:54:42.299Z,87.66
2019-06-01T06:55:42.739Z,88.63
2019-06-01T06:56:43.187Z,88.87
2019-06-01T06:57:43.643Z,87.90
2019-06-01T06:58:44.087Z,88.71
2019-06-01T06:59:44.525Z,89.19
2019-06-01T07:00:44.979Z,88.85
2019-06-01T07:01:45.437Z,89.04
2019-06-01T07:02:45.883Z,88.31
2019-06-01T07:03:46.330Z,88.84
2019-06-01T07:04:46.774Z,88.46
2019-06-01T07:05:47.223Z,89.62
2019-06-01T07:06:47.671Z,88.98
2019-06-01T07:07:48.118Z,87.96
2019-06-01T07:08:49.075Z,86.71
2019-06-01T07:09:49.027Z,87.90
2019-06-01T07:10:49.499Z,84.93
2019-06-01T07:11:49.925Z,84.16
2019-06-01T07:12:50.383Z,84.89
2019-06-01T07:13:50.836Z,84.78
2019-06-01T07:14:51.290Z,82.93
2019-06-01T07:15:51.744Z,82.67
2019-06-01T07:16:52.200Z,79.57
2019-06-01T07:17:52.672Z,80.09
2019-06-01T07:18:53.113Z,77.91
2019-06-01T07:19:53.577Z,78.36
2019-06-01T07:20:54.028Z,80.38
2019-06-01T07:21:54.517Z,78.09
2019-06-01T07:22:54.941Z,79.00
2019-06-01T07:23:55.408Z,79.24
2019-06-01T07:24:55.868Z,81.67
2019-06-01T07:25:56.311Z,79.35
2019-06-01T07:26:56.878Z,75.79
2019-06-01T07:27:57.240Z,73.58
2019-06-01T07:28:57.684Z,72.35
2019-06-01T07:29:58.141Z,71.12
2019-06-01T07:30:58.603Z,72.19
2019-06-01T07:31:59.056Z,73.35
2019-06-01T07:32:59.532Z,72.28
2019-06-01T07:33:59.981Z,72.51
2019-06-01T07:35:01.336Z,72.35
2019-06-01T07:36:00.905Z,70.63
2019-06-01T07:37:01.360Z,70.50
2019-06-01T07:38:01.823Z,70.56
2019-06-01T07:39:02.280Z,73.44
2019-06-01T07:40:02.747Z,75.26
2019-06-01T07:41:03.209Z,71.27
2019-06-01T07:42:03.735Z,72.31
2019-06-01T07:43:04.155Z,69.62
2019-06-01T07:44:04.593Z,69.46
2019-06-01T07:45:05.056Z,67.35
2019-06-01T07:46:05.518Z,65.82
2019-06-01T07:47:05.970Z,65.23
2019-06-01T07:48:06.430Z,64.03
2019-06-01T07:49:06.892Z,68.03
2019-06-01T07:50:07.362Z,67.67
2019-06-01T07:51:07.822Z,65.40
2019-06-01T07:52:13.303Z,66.63
2019-06-01T07:53:08.737Z,67.02
2019-06-01T07:54:09.199Z,66.34
2019-06-01T07:55:09.658Z,69.96
2019-06-01T07:56:10.113Z,69.06
2019-06-01T07:57:10.576Z,68.67
2019-06-01T07:58:11.060Z,68.64
2019-06-01T07:59:11.494Z,66.89
2019-06-01T08:00:11.949Z,67.18
2019-06-01T08:01:12.451Z,67.96
2019-06-01T08:02:12.885Z,67.77
2019-06-01T08:03:13.335Z,66.41
2019-06-01T08:04:13.786Z,66.41
2019-06-01T08:05:14.239Z,66.63
2019-06-01T08:06:14.700Z,64.94
2019-06-01T08:07:15.158Z,67.21
2019-06-01T08:08:15.625Z,71.09
2019-06-01T08:09:16.072Z,74.60
2019-06-01T08:10:16.532Z,73.46
2019-06-01T08:11:16.989Z,71.06
2019-06-01T08:12:17.449Z,70.22
2019-06-01T08:13:17.910Z,68.99
2019-06-01T08:14:18.414Z,67.96
2019-06-01T08:15:18.815Z,66.24
2019-06-01T08:16:19.264Z,66.17
2019-06-01T08:17:19.735Z,64.49
2019-06-01T08:18:20.197Z,67.15
2019-06-01T08:19:21.961Z,65.36
2019-06-01T08:20:21.879Z,63.48
2019-06-01T08:21:21.832Z,62.96
2019-06-01T08:22:22.228Z,61.43
2019-06-01T08:23:22.480Z,60.78
2019-06-01T08:24:24.105Z,59.41
2019-06-01T08:25:24.329Z,58.44
2019-06-01T08:26:24.385Z,58.31
2019-06-01T08:27:24.455Z,60.03
2019-06-01T08:28:24.785Z,59.64
2019-06-01T08:29:26.527Z,58.48
2019-06-01T08:30:26.422Z,58.42
2019-06-01T08:31:26.610Z,61.02
2019-06-01T08:32:26.715Z,64.81
2019-06-01T08:33:30.242Z,63.97
2019-06-01T08:34:27.588Z,64.10
2019-06-01T08:35:29.063Z,61.76
2019-06-01T08:38:01.599Z,59.19
2019-06-01T08:39:02.105Z,59.42
2019-06-01T08:40:56.668Z,61.79
2019-06-01T08:41:57.128Z,59.88
2019-06-01T08:43:52.170Z,59.31
2019-06-01T08:44:52.627Z,57.71
2019-06-01T08:46:47.246Z,56.71
2019-06-01T08:47:47.701Z,55.69
2019-06-01T08:49:43.310Z,57.53
2019-06-01T08:50:45.949Z,62.06
2019-06-01T08:52:38.388Z,57.79
2019-06-01T08:53:38.856Z,59.23
2019-06-01T08:55:34.468Z,57.89
2019-06-01T08:56:34.450Z,58.53
2019-06-01T08:58:28.586Z,58.14
2019-06-01T09:02:36.557Z,55.13
2019-06-01T09:03:45.508Z,54.42
2019-06-01T09:05:31.604Z,51.93
2019-06-01T09:06:32.732Z,54.22
2019-06-01T09:08:27.101Z,54.17
2019-06-01T09:09:27.140Z,54.39
2019-06-01T09:12:54.924Z,49.46
2019-06-01T09:13:55.410Z,53.54
2019-06-01T09:15:50.090Z,56.52
2019-06-01T09:16:50.517Z,54.39
2019-06-01T09:18:45.144Z,51.78
2019-06-01T09:19:45.596Z,52.10
2019-06-01T09:21:40.234Z,50.51
2019-06-01T09:22:40.703Z,53.29
2019-06-01T09:23:41.172Z,52.73
2019-06-01T09:24:41.640Z,53.49
2019-06-01T09:25:42.104Z,52.73
2019-06-01T09:26:42.580Z,52.00
2019-06-01T09:27:43.048Z,48.77
2019-06-01T09:28:43.521Z,51.92
2019-06-01T09:29:44.873Z,54.97
2019-06-01T09:30:44.450Z,54.42
2019-06-01T09:31:44.923Z,52.34
2019-06-01T09:32:45.395Z,52.37
2019-06-01T09:33:45.860Z,48.52
2019-06-01T09:34:46.335Z,47.94
2019-06-01T09:35:55.597Z,48.63
2019-06-01T09:36:47.274Z,50.49
2019-06-01T09:37:47.744Z,53.46
2019-06-01T09:38:48.215Z,54.00
2019-06-01T09:39:48.689Z,52.59
2019-06-01T09:40:49.215Z,53.52
2019-06-01T09:41:49.627Z,54.05
2019-06-01T09:42:50.082Z,55.12
2019-06-01T09:43:50.552Z,54.39
2019-06-01T09:44:51.046Z,54.80
2019-06-01T09:45:53.290Z,55.36
2019-06-01T09:46:51.951Z,55.58
2019-06-01T09:47:52.421Z,58.97
2019-06-01T09:48:52.926Z,60.57
2019-06-01T09:49:53.373Z,57.99
2019-06-01T09:50:53.814Z,55.18
2019-06-01T09:51:54.291Z,52.25
2019-06-01T09:52:54.748Z,50.12
2019-06-01T09:53:55.220Z,48.92
2019-06-01T09:54:55.679Z,47.79
2019-06-01T09:55:56.152Z,48.60
2019-06-01T09:56:56.622Z,47.79
2019-06-01T09:57:57.083Z,53.21
2019-06-01T09:58:57.552Z,53.85
2019-06-01T09:59:58.021Z,54.36
2019-06-01T10:00:58.534Z,53.81
2019-06-01T10:01:58.949Z,51.39
2019-06-01T10:02:59.418Z,50.61
2019-06-01T10:03:59.891Z,52.58
2019-06-01T10:05:00.352Z,53.09
2019-06-01T10:06:02.404Z,52.39
2019-06-01T10:07:01.265Z,53.17
2019-06-01T10:08:01.728Z,54.16
2019-06-01T10:09:02.187Z,56.21
2019-06-01T10:10:02.641Z,55.21
2019-06-01T10:11:03.116Z,55.16
2019-06-01T10:12:03.572Z,54.14
2019-06-01T10:13:07.551Z,56.81
2019-06-01T10:14:04.490Z,58.10
2019-06-01T10:15:04.961Z,55.75
2019-06-01T10:17:39.022Z,56.04
2019-06-01T10:18:39.150Z,54.63
2019-06-01T10:20:34.775Z,51.22
2019-06-01T10:21:34.105Z,49.90
2019-06-01T10:23:30.060Z,47.25
2019-06-01T10:24:29.177Z,47.77
2019-06-01T10:26:23.882Z,46.54
2019-06-01T10:27:24.273Z,46.39
2019-06-01T10:28:24.758Z,47.60
2019-06-01T10:29:25.212Z,45.87
2019-06-01T10:30:25.668Z,43.22
2019-06-01T10:31:26.140Z,43.02
2019-06-01T10:32:26.608Z,43.46
2019-06-01T10:33:27.112Z,41.69
2019-06-01T10:34:27.543Z,41.49
2019-06-01T10:35:28.021Z,40.72
2019-06-01T10:36:28.480Z,41.78
2019-06-01T10:37:28.956Z,41.22
2019-06-01T10:38:29.422Z,40.63
2019-06-01T10:39:31.144Z,40.76
2019-06-01T10:40:31.222Z,39.94
2019-06-01T10:41:31.213Z,39.95
2019-06-01T10:42:32.714Z,40.45
2019-06-01T10:43:31.776Z,41.17
2019-06-01T10:44:36.743Z,41.38
2019-06-01T10:45:33.527Z,41.11
2019-06-01T10:46:33.859Z,42.27
2019-06-01T10:47:33.815Z,41.49
2019-06-01T10:48:34.522Z,39.28
2019-06-01T10:49:35.715Z,38.62
2019-06-01T10:50:36.554Z,39.03
2019-06-01T10:51:36.247Z,38.43
2019-06-01T10:52:36.276Z,40.64
2019-06-01T10:53:36.501Z,44.13
2019-06-01T10:54:38.206Z,43.10
2019-06-01T10:55:38.436Z,43.26
2019-06-01T10:56:38.477Z,40.72
2019-06-01T10:57:38.567Z,40.86
2019-06-01T10:58:54.492Z,42.91
2019-06-01T10:59:40.464Z,44.70
2019-06-01T11:00:46.702Z,43.72
2019-06-01T11:01:40.931Z,45.76
2019-06-01T11:02:40.977Z,44.59
2019-06-01T11:03:41.261Z,44.06
2019-06-01T11:04:43.234Z,41.33
2019-06-01T11:05:42.997Z,40.47
2019-06-01T11:06:47.937Z,40.41
2019-06-01T11:07:43.357Z,39.34
2019-06-01T11:08:43.631Z,39.32
2019-06-01T11:09:44.108Z,38.99
2019-06-01T11:10:44.579Z,38.72
2019-06-01T11:11:45.054Z,40.27
2019-06-01T11:12:45.526Z,40.72
2019-06-01T11:13:46.002Z,42.39
2019-06-01T11:14:46.482Z,42.35
2019-06-01T11:15:46.943Z,40.25
2019-06-01T11:16:54.842Z,42.50
2019-06-01T11:17:47.879Z,44.91
2019-06-01T11:18:48.485Z,44.68
2019-06-01T11:19:48.835Z,42.29
2019-06-01T11:20:49.294Z,40.21
2019-06-01T11:21:49.769Z,40.80
2019-06-01T11:22:50.241Z,38.84
2019-06-01T11:23:50.726Z,38.82
2019-06-01T11:24:51.181Z,39.66
2019-06-01T11:25:51.648Z,40.63
2019-06-01T11:26:52.115Z,41.49
2019-06-01T11:27:52.588Z,41.03
2019-06-01T11:28:53.057Z,41.86
2019-06-01T11:29:53.789Z,39.26
2019-06-01T11:30:53.987Z,39.66
2019-06-01T11:31:54.473Z,36.49
2019-06-01T11:32:54.935Z,36.99
2019-06-01T11:33:55.414Z,37.76
2019-06-01T11:34:55.882Z,39.56
2019-06-01T11:35:56.356Z,41.08
2019-06-01T11:37:05.124Z,44.18
2019-06-01T11:37:57.297Z,45.26
2019-06-01T11:38:57.762Z,45.53
2019-06-01T11:39:58.230Z,47.24
2019-06-01T11:42:31.838Z,51.12
2019-06-01T11:45:05.451Z,52.53
2019-06-01T11:46:05.883Z,52.19
2019-06-01T11:48:00.490Z,51.34
2019-06-01T11:49:00.959Z,51.14
2019-06-01T11:50:55.575Z,54.21
2019-06-01T11:51:56.028Z,52.77
2019-06-01T11:53:51.672Z,51.97
2019-06-01T11:54:52.078Z,52.06
2019-06-01T11:56:47.669Z,53.01
2019-06-01T11:57:48.113Z,54.93
2019-06-01T11:59:43.592Z,55.85
2019-06-01T12:00:43.771Z,56.98
2019-06-01T12:02:37.782Z,57.67
2019-06-01T12:03:39.568Z,58.22
2019-06-01T12:05:32.834Z,58.83
2019-06-01T12:06:33.293Z,58.47
2019-06-01T12:08:27.901Z,58.64
2019-06-01T12:09:28.364Z,56.82
2019-06-01T12:11:22.961Z,56.16
2019-06-01T12:12:23.404Z,55.51
2019-06-01T12:14:17.999Z,55.90
2019-06-01T12:15:18.453Z,54.74
2019-06-01T12:17:13.079Z,55.29
2019-06-01T12:18:13.503Z,55.29
2019-06-01T12:20:08.783Z,56.07
2019-06-01T12:21:09.255Z,56.26
2019-06-01T12:23:03.831Z,56.07
2019-06-01T12:24:04.283Z,56.26
2019-06-01T12:25:58.868Z,54.25
2019-06-01T12:26:59.330Z,54.64
2019-06-01T12:28:53.936Z,56.65
2019-06-01T12:29:54.386Z,56.92
2019-06-01T12:31:48.985Z,56.52
2019-06-01T12:32:49.427Z,56.92
2019-06-01T12:34:44.100Z,56.43
2019-06-01T12:35:44.474Z,55.88
2019-06-01T12:37:57.009Z,55.49
2019-06-01T12:38:39.797Z,55.98
2019-06-01T12:40:34.092Z,55.41
2019-06-01T12:41:34.560Z,54.44
2019-06-01T12:43:30.207Z,54.64
2019-06-01T12:44:30.576Z,53.67
2019-06-01T12:46:25.178Z,53.08
2019-06-01T12:47:25.621Z,53.18
2019-06-01T12:49:20.220Z,53.18
2019-06-01T12:50:20.771Z,54.42
2019-06-01T12:52:15.262Z,54.61
2019-06-01T12:53:15.697Z,53.93
2019-06-01T12:55:10.284Z,54.05
2019-06-01T12:56:10.737Z,54.93
2019-06-01T12:57:11.184Z,55.39
2019-06-01T12:58:11.638Z,55.29
2019-06-01T12:59:12.083Z,54.93
2019-06-01T13:00:12.530Z,52.40
2019-06-01T13:01:12.986Z,53.25
2019-06-01T13:02:13.439Z,53.35
2019-06-01T13:03:13.881Z,52.76
2019-06-01T13:04:14.443Z,53.96
2019-06-01T13:05:14.776Z,52.89
2019-06-01T13:06:15.233Z,52.31
2019-06-01T13:07:15.687Z,52.23
2019-06-01T13:08:16.125Z,52.53
2019-06-01T13:09:16.582Z,52.14
2019-06-01T13:10:17.037Z,52.76
2019-06-01T13:11:17.477Z,53.35
2019-06-01T13:12:17.928Z,53.18
2019-06-01T13:13:18.378Z,52.79
2019-06-01T13:14:18.826Z,52.47
2019-06-01T13:15:19.273Z,52.47
2019-06-01T13:16:19.731Z,52.40
2019-06-01T13:17:20.176Z,52.21
2019-06-01T13:18:20.625Z,51.53
2019-06-01T13:20:54.198Z,51.21
2019-06-01T13:21:54.650Z,51.43
2019-06-01T13:23:49.627Z,51.62
2019-06-01T13:24:49.923Z,51.43
2019-06-01T13:25:50.146Z,52.31
2019-06-01T13:26:51.862Z,51.62
2019-06-01T13:27:51.044Z,52.28
2019-06-01T13:28:52.590Z,52.67
2019-06-01T13:29:52.268Z,53.03
2019-06-01T13:30:52.983Z,52.76
2019-06-01T13:31:52.837Z,53.47
2019-06-01T13:32:53.286Z,52.40
2019-06-01T13:35:26.872Z,52.21
2019-06-01T13:36:27.317Z,51.26
2019-06-01T13:38:22.097Z,51.17
2019-06-01T13:39:22.549Z,51.31
2019-06-01T13:41:17.141Z,50.56
2019-06-01T13:42:17.598Z,50.36
2019-06-01T13:44:13.183Z,50.87
2019-06-01T13:45:13.621Z,49.78
2019-06-01T13:47:08.220Z,50.65
2019-06-01T13:48:08.693Z,49.99
2019-06-01T13:50:06.460Z,49.41
2019-06-01T13:51:03.709Z,49.22
2019-06-01T13:52:58.313Z,48.63
2019-06-01T13:53:58.751Z,47.86
2019-06-01T13:55:53.342Z,48.61
2019-06-01T13:56:55.168Z,48.83
2019-06-01T13:58:48.392Z,48.15
2019-06-01T13:59:48.906Z,48.34
2019-06-01T14:01:45.111Z,48.34
2019-06-01T14:02:48.990Z,48.83
2019-06-01T14:04:40.456Z,49.39
2019-06-01T14:05:40.892Z,49.22
2019-06-01T14:07:35.487Z,49.02
2019-06-01T14:08:35.933Z,49.10
2019-06-01T14:10:30.523Z,49.02